sensor_id;sensor_type;location;lat;lon;timestamp;temperature;humidity
16517;DHT22;8371;52.272;9.746;2023-04-03T00:01:14;3.10;66.70
16517;DHT22;8371;52.272;9.746;2023-04-03T00:03:39;3.00;66.90
16517;DHT22;8371;52.272;9.746;2023-04-03T00:06:07;3.00;68.00
16517;DHT22;8371;52.272;9.746;2023-04-03T00:08:35;3.00;68.50
16517;DHT22;8371;52.272;9.746;2023-04-03T00:11:01;3.00;67.80
16517;DHT22;8371;52.272;9.746;2023-04-03T00:13:27;2.90;67.50
16517;DHT22;8371;52.272;9.746;2023-04-03T00:15:53;2.90;67.70
16517;DHT22;8371;52.272;9.746;2023-04-03T00:18:19;2.90;68.40
16517;DHT22;8371;52.272;9.746;2023-04-03T00:20:45;2.90;67.80
16517;DHT22;8371;52.272;9.746;2023-04-03T00:23:11;2.80;67.50
16517;DHT22;8371;52.272;9.746;2023-04-03T00:25:37;2.80;66.70
16517;DHT22;8371;52.272;9.746;2023-04-03T00:28:03;2.80;66.50
16517;DHT22;8371;52.272;9.746;2023-04-03T00:30:30;2.80;66.30
16517;DHT22;8371;52.272;9.746;2023-04-03T00:32:57;2.70;66.20
16517;DHT22;8371;52.272;9.746;2023-04-03T00:35:23;2.70;66.20
16517;DHT22;8371;52.272;9.746;2023-04-03T00:37:53;2.60;66.20
16517;DHT22;8371;52.272;9.746;2023-04-03T00:40:21;2.60;66.10
16517;DHT22;8371;52.272;9.746;2023-04-03T00:42:48;2.60;66.10
16517;DHT22;8371;52.272;9.746;2023-04-03T00:47:51;2.50;66.10
16517;DHT22;8371;52.272;9.746;2023-04-03T00:50:17;2.40;66.00
16517;DHT22;8371;52.272;9.746;2023-04-03T00:52:43;2.30;66.00
16517;DHT22;8371;52.272;9.746;2023-04-03T00:55:12;2.30;66.30
16517;DHT22;8371;52.272;9.746;2023-04-03T00:57:40;2.20;66.20
16517;DHT22;8371;52.272;9.746;2023-04-03T01:00:10;2.20;66.40
16517;DHT22;8371;52.272;9.746;2023-04-03T01:02:35;2.10;66.40
16517;DHT22;8371;52.272;9.746;2023-04-03T01:05:01;2.10;66.30
16517;DHT22;8371;52.272;9.746;2023-04-03T01:07:30;2.00;66.20
16517;DHT22;8371;52.272;9.746;2023-04-03T01:09:57;2.00;66.30
16517;DHT22;8371;52.272;9.746;2023-04-03T01:12:29;1.90;66.30
16517;DHT22;8371;52.272;9.746;2023-04-03T01:14:58;1.70;66.80
16517;DHT22;8371;52.272;9.746;2023-04-03T01:17:52;1.80;66.60
16517;DHT22;8371;52.272;9.746;2023-04-03T01:20:40;1.70;66.70
16517;DHT22;8371;52.272;9.746;2023-04-03T01:25:52;1.60;67.00
16517;DHT22;8371;52.272;9.746;2023-04-03T01:33:32;1.50;67.90
16517;DHT22;8371;52.272;9.746;2023-04-03T01:35:58;1.50;68.00
16517;DHT22;8371;52.272;9.746;2023-04-03T01:38:23;1.50;68.00
16517;DHT22;8371;52.272;9.746;2023-04-03T01:40:50;1.50;68.30
16517;DHT22;8371;52.272;9.746;2023-04-03T01:43:15;1.40;68.00
16517;DHT22;8371;52.272;9.746;2023-04-03T01:45:41;1.40;67.70
16517;DHT22;8371;52.272;9.746;2023-04-03T01:48:07;1.40;67.60
16517;DHT22;8371;52.272;9.746;2023-04-03T01:50:33;1.40;67.50
16517;DHT22;8371;52.272;9.746;2023-04-03T01:52:58;1.40;67.40
16517;DHT22;8371;52.272;9.746;2023-04-03T01:55:24;1.30;67.30
16517;DHT22;8371;52.272;9.746;2023-04-03T01:57:50;1.30;67.30
16517;DHT22;8371;52.272;9.746;2023-04-03T02:00:16;1.20;67.30
16517;DHT22;8371;52.272;9.746;2023-04-03T02:02:41;1.20;68.20
16517;DHT22;8371;52.272;9.746;2023-04-03T02:05:08;1.20;67.40
16517;DHT22;8371;52.272;9.746;2023-04-03T02:07:33;1.10;67.50
16517;DHT22;8371;52.272;9.746;2023-04-03T02:09:59;1.20;67.70
16517;DHT22;8371;52.272;9.746;2023-04-03T02:12:25;1.10;67.80
16517;DHT22;8371;52.272;9.746;2023-04-03T02:14:51;1.00;67.60
16517;DHT22;8371;52.272;9.746;2023-04-03T02:17:17;1.00;67.70
16517;DHT22;8371;52.272;9.746;2023-04-03T02:19:42;0.90;67.70
16517;DHT22;8371;52.272;9.746;2023-04-03T02:22:08;0.90;67.80
16517;DHT22;8371;52.272;9.746;2023-04-03T02:24:34;0.80;67.80
16517;DHT22;8371;52.272;9.746;2023-04-03T02:26:59;0.80;67.90
16517;DHT22;8371;52.272;9.746;2023-04-03T02:29:25;0.80;67.90
16517;DHT22;8371;52.272;9.746;2023-04-03T02:31:51;0.80;68.00
16517;DHT22;8371;52.272;9.746;2023-04-03T02:34:17;0.70;67.90
16517;DHT22;8371;52.272;9.746;2023-04-03T02:36:43;0.70;68.00
16517;DHT22;8371;52.272;9.746;2023-04-03T02:39:09;0.70;68.10
16517;DHT22;8371;52.272;9.746;2023-04-03T02:41:35;0.70;68.10
16517;DHT22;8371;52.272;9.746;2023-04-03T02:44:02;0.70;68.20
16517;DHT22;8371;52.272;9.746;2023-04-03T02:46:28;0.60;68.10
16517;DHT22;8371;52.272;9.746;2023-04-03T02:48:54;0.60;68.20
16517;DHT22;8371;52.272;9.746;2023-04-03T02:51:20;0.60;68.20
16517;DHT22;8371;52.272;9.746;2023-04-03T02:53:46;0.60;68.20
16517;DHT22;8371;52.272;9.746;2023-04-03T02:56:12;0.50;68.10
16517;DHT22;8371;52.272;9.746;2023-04-03T02:58:37;0.50;68.10
16517;DHT22;8371;52.272;9.746;2023-04-03T03:01:03;0.40;68.00
16517;DHT22;8371;52.272;9.746;2023-04-03T03:03:29;0.40;68.00
16517;DHT22;8371;52.272;9.746;2023-04-03T03:06:03;0.40;68.10
16517;DHT22;8371;52.272;9.746;2023-04-03T03:08:29;0.30;68.00
16517;DHT22;8371;52.272;9.746;2023-04-03T03:10:54;0.30;68.20
16517;DHT22;8371;52.272;9.746;2023-04-03T03:13:20;0.30;68.20
16517;DHT22;8371;52.272;9.746;2023-04-03T03:15:46;0.20;68.30
16517;DHT22;8371;52.272;9.746;2023-04-03T03:18:11;0.20;68.40
16517;DHT22;8371;52.272;9.746;2023-04-03T03:20:37;0.20;68.50
16517;DHT22;8371;52.272;9.746;2023-04-03T03:23:03;0.20;68.60
16517;DHT22;8371;52.272;9.746;2023-04-03T03:25:28;0.20;68.70
16517;DHT22;8371;52.272;9.746;2023-04-03T03:27:54;0.10;68.60
16517;DHT22;8371;52.272;9.746;2023-04-03T03:30:20;0.10;68.60
16517;DHT22;8371;52.272;9.746;2023-04-03T03:32:46;0.10;68.70
16517;DHT22;8371;52.272;9.746;2023-04-03T03:35:12;0.10;68.60
16517;DHT22;8371;52.272;9.746;2023-04-03T03:37:38;0.10;68.70
16517;DHT22;8371;52.272;9.746;2023-04-03T03:40:04;0.00;68.60
16517;DHT22;8371;52.272;9.746;2023-04-03T03:42:30;0.00;68.70
16517;DHT22;8371;52.272;9.746;2023-04-03T03:44:55;0.00;68.70
16517;DHT22;8371;52.272;9.746;2023-04-03T03:47:21;-0.10;68.60
16517;DHT22;8371;52.272;9.746;2023-04-03T03:49:47;-0.10;68.60
16517;DHT22;8371;52.272;9.746;2023-04-03T03:52:12;-0.10;68.70
16517;DHT22;8371;52.272;9.746;2023-04-03T03:54:38;-0.20;68.70
16517;DHT22;8371;52.272;9.746;2023-04-03T03:57:04;-0.20;68.80
16517;DHT22;8371;52.272;9.746;2023-04-03T03:59:30;-0.20;68.90
16517;DHT22;8371;52.272;9.746;2023-04-03T04:01:56;-0.20;69.10
16517;DHT22;8371;52.272;9.746;2023-04-03T04:04:21;-0.30;68.90
16517;DHT22;8371;52.272;9.746;2023-04-03T04:06:47;-0.30;69.00
16517;DHT22;8371;52.272;9.746;2023-04-03T04:09:13;-0.30;69.00
16517;DHT22;8371;52.272;9.746;2023-04-03T04:11:38;-0.30;69.10
16517;DHT22;8371;52.272;9.746;2023-04-03T04:14:06;-0.40;69.10
16517;DHT22;8371;52.272;9.746;2023-04-03T04:16:32;-0.30;69.20
16517;DHT22;8371;52.272;9.746;2023-04-03T04:18:58;-0.30;70.00
16517;DHT22;8371;52.272;9.746;2023-04-03T04:21:24;-0.40;69.90
16517;DHT22;8371;52.272;9.746;2023-04-03T04:23:49;-0.40;69.20
16517;DHT22;8371;52.272;9.746;2023-04-03T04:26:15;-0.40;69.30
16517;DHT22;8371;52.272;9.746;2023-04-03T04:28:41;-0.40;69.30
16517;DHT22;8371;52.272;9.746;2023-04-03T04:31:06;-0.50;69.20
16517;DHT22;8371;52.272;9.746;2023-04-03T04:33:32;-0.50;69.20
16517;DHT22;8371;52.272;9.746;2023-04-03T04:35:58;-0.50;69.20
16517;DHT22;8371;52.272;9.746;2023-04-03T04:38:23;-0.60;69.10
16517;DHT22;8371;52.272;9.746;2023-04-03T04:40:49;-0.60;69.20
16517;DHT22;8371;52.272;9.746;2023-04-03T04:43:15;-0.60;69.10
16517;DHT22;8371;52.272;9.746;2023-04-03T04:45:41;-0.70;69.10
16517;DHT22;8371;52.272;9.746;2023-04-03T04:48:07;-0.70;69.10
16517;DHT22;8371;52.272;9.746;2023-04-03T04:50:33;-0.70;69.10
16517;DHT22;8371;52.272;9.746;2023-04-03T04:52:59;-0.70;69.20
16517;DHT22;8371;52.272;9.746;2023-04-03T04:55:24;-0.70;69.30
16517;DHT22;8371;52.272;9.746;2023-04-03T04:57:50;-0.80;69.20
16517;DHT22;8371;52.272;9.746;2023-04-03T05:00:16;-0.80;69.30
16517;DHT22;8371;52.272;9.746;2023-04-03T05:02:42;-0.80;69.40
16517;DHT22;8371;52.272;9.746;2023-04-03T05:05:08;-0.80;69.40
16517;DHT22;8371;52.272;9.746;2023-04-03T05:07:34;-0.90;69.40
16517;DHT22;8371;52.272;9.746;2023-04-03T05:10:02;-0.80;69.50
16517;DHT22;8371;52.272;9.746;2023-04-03T05:12:28;-0.90;69.60
16517;DHT22;8371;52.272;9.746;2023-04-03T05:14:54;-0.80;69.70
16517;DHT22;8371;52.272;9.746;2023-04-03T05:17:20;-0.90;69.80
16517;DHT22;8371;52.272;9.746;2023-04-03T05:19:46;-0.80;70.10
16517;DHT22;8371;52.272;9.746;2023-04-03T05:22:11;-0.80;70.20
16517;DHT22;8371;52.272;9.746;2023-04-03T05:24:37;-0.80;70.30
16517;DHT22;8371;52.272;9.746;2023-04-03T05:27:03;-0.70;70.40
16517;DHT22;8371;52.272;9.746;2023-04-03T05:29:29;-0.70;70.70
16517;DHT22;8371;52.272;9.746;2023-04-03T05:31:55;-0.60;70.70
16517;DHT22;8371;52.272;9.746;2023-04-03T05:34:21;-0.50;70.90
16517;DHT22;8371;52.272;9.746;2023-04-03T05:36:46;-0.40;71.20
16517;DHT22;8371;52.272;9.746;2023-04-03T05:39:12;-0.30;71.20
16517;DHT22;8371;52.272;9.746;2023-04-03T05:41:38;-0.30;71.20
16517;DHT22;8371;52.272;9.746;2023-04-03T05:44:04;-0.20;71.30
16517;DHT22;8371;52.272;9.746;2023-04-03T05:46:30;-0.10;71.40
16517;DHT22;8371;52.272;9.746;2023-04-03T05:48:55;0.00;71.40
16517;DHT22;8371;52.272;9.746;2023-04-03T05:51:29;0.10;71.60
16517;DHT22;8371;52.272;9.746;2023-04-03T05:53:58;0.30;71.70
16517;DHT22;8371;52.272;9.746;2023-04-03T05:56:23;0.40;71.70
16517;DHT22;8371;52.272;9.746;2023-04-03T05:58:48;0.50;71.90
16517;DHT22;8371;52.272;9.746;2023-04-03T06:01:14;0.60;71.90
16517;DHT22;8371;52.272;9.746;2023-04-03T06:03:41;0.80;72.00
16517;DHT22;8371;52.272;9.746;2023-04-03T06:06:07;0.90;72.10
16517;DHT22;8371;52.272;9.746;2023-04-03T06:08:33;1.00;72.10
16517;DHT22;8371;52.272;9.746;2023-04-03T06:10:59;1.20;72.20
16517;DHT22;8371;52.272;9.746;2023-04-03T06:13:25;1.30;72.20
16517;DHT22;8371;52.272;9.746;2023-04-03T06:15:50;1.50;72.40
16517;DHT22;8371;52.272;9.746;2023-04-03T06:18:16;1.60;72.30
16517;DHT22;8371;52.272;9.746;2023-04-03T06:20:42;1.80;72.40
16517;DHT22;8371;52.272;9.746;2023-04-03T06:23:07;2.00;72.50
16517;DHT22;8371;52.272;9.746;2023-04-03T06:25:34;2.20;72.60
16517;DHT22;8371;52.272;9.746;2023-04-03T06:28:00;2.30;72.40
16517;DHT22;8371;52.272;9.746;2023-04-03T06:30:26;2.50;72.40
16517;DHT22;8371;52.272;9.746;2023-04-03T06:32:52;2.70;72.60
16517;DHT22;8371;52.272;9.746;2023-04-03T06:35:18;2.80;72.90
16517;DHT22;8371;52.272;9.746;2023-04-03T06:37:43;3.00;72.50
16517;DHT22;8371;52.272;9.746;2023-04-03T06:40:19;3.20;72.50
16517;DHT22;8371;52.272;9.746;2023-04-03T06:42:46;3.40;72.60
16517;DHT22;8371;52.272;9.746;2023-04-03T06:45:11;3.60;72.40
16517;DHT22;8371;52.272;9.746;2023-04-03T06:47:37;3.80;72.10
16517;DHT22;8371;52.272;9.746;2023-04-03T06:50:03;3.90;72.20
16517;DHT22;8371;52.272;9.746;2023-04-03T06:52:29;4.10;72.60
16517;DHT22;8371;52.272;9.746;2023-04-03T06:54:55;4.30;71.60
16517;DHT22;8371;52.272;9.746;2023-04-03T06:57:22;4.50;71.40
16517;DHT22;8371;52.272;9.746;2023-04-03T06:59:48;4.70;71.30
16517;DHT22;8371;52.272;9.746;2023-04-03T07:02:14;4.80;71.10
16517;DHT22;8371;52.272;9.746;2023-04-03T07:04:40;5.00;71.00
16517;DHT22;8371;52.272;9.746;2023-04-03T07:07:05;5.20;71.00
16517;DHT22;8371;52.272;9.746;2023-04-03T07:09:31;5.30;70.70
16517;DHT22;8371;52.272;9.746;2023-04-03T07:11:57;5.50;70.40
16517;DHT22;8371;52.272;9.746;2023-04-03T07:14:23;5.60;70.20
16517;DHT22;8371;52.272;9.746;2023-04-03T07:16:48;5.70;70.00
16517;DHT22;8371;52.272;9.746;2023-04-03T07:19:14;5.90;70.00
16517;DHT22;8371;52.272;9.746;2023-04-03T07:21:40;6.10;69.90
16517;DHT22;8371;52.272;9.746;2023-04-03T07:24:07;6.20;69.70
16517;DHT22;8371;52.272;9.746;2023-04-03T07:26:33;6.40;69.60
16517;DHT22;8371;52.272;9.746;2023-04-03T07:28:58;6.50;68.80
16517;DHT22;8371;52.272;9.746;2023-04-03T07:31:25;6.60;67.70
16517;DHT22;8371;52.272;9.746;2023-04-03T07:33:50;6.80;68.40
16517;DHT22;8371;52.272;9.746;2023-04-03T07:36:19;6.90;68.00
16517;DHT22;8371;52.272;9.746;2023-04-03T07:38:45;7.00;67.70
16517;DHT22;8371;52.272;9.746;2023-04-03T07:41:15;7.10;67.20
16517;DHT22;8371;52.272;9.746;2023-04-03T07:43:43;7.20;66.40
16517;DHT22;8371;52.272;9.746;2023-04-03T07:46:09;7.30;67.20
16517;DHT22;8371;52.272;9.746;2023-04-03T07:48:36;7.40;67.30
16517;DHT22;8371;52.272;9.746;2023-04-03T07:51:03;7.50;67.60
16517;DHT22;8371;52.272;9.746;2023-04-03T07:53:29;7.60;66.60
16517;DHT22;8371;52.272;9.746;2023-04-03T07:55:57;7.70;66.20
16517;DHT22;8371;52.272;9.746;2023-04-03T07:58:22;7.80;66.30
16517;DHT22;8371;52.272;9.746;2023-04-03T08:00:48;8.00;66.00
16517;DHT22;8371;52.272;9.746;2023-04-03T08:03:14;8.10;66.30
16517;DHT22;8371;52.272;9.746;2023-04-03T08:05:43;8.20;65.90
16517;DHT22;8371;52.272;9.746;2023-04-03T08:08:11;8.30;65.80
16517;DHT22;8371;52.272;9.746;2023-04-03T08:10:37;8.40;65.60
16517;DHT22;8371;52.272;9.746;2023-04-03T08:13:03;8.50;65.80
16517;DHT22;8371;52.272;9.746;2023-04-03T08:15:30;8.60;65.50
16517;DHT22;8371;52.272;9.746;2023-04-03T08:17:56;8.70;63.30
16517;DHT22;8371;52.272;9.746;2023-04-03T08:20:21;8.80;63.80
16517;DHT22;8371;52.272;9.746;2023-04-03T08:22:47;8.90;62.30
16517;DHT22;8371;52.272;9.746;2023-04-03T08:25:13;9.00;62.70
16517;DHT22;8371;52.272;9.746;2023-04-03T08:27:39;9.10;63.40
16517;DHT22;8371;52.272;9.746;2023-04-03T08:30:07;9.20;63.00
16517;DHT22;8371;52.272;9.746;2023-04-03T08:32:34;9.30;63.90
16517;DHT22;8371;52.272;9.746;2023-04-03T08:35:02;9.40;61.90
16517;DHT22;8371;52.272;9.746;2023-04-03T08:37:27;9.40;61.00
16517;DHT22;8371;52.272;9.746;2023-04-03T08:39:53;9.50;60.30
16517;DHT22;8371;52.272;9.746;2023-04-03T08:45:27;9.50;59.80
16517;DHT22;8371;52.272;9.746;2023-04-03T08:48:04;9.50;60.40
16517;DHT22;8371;52.272;9.746;2023-04-03T08:50:37;9.50;61.60
16517;DHT22;8371;52.272;9.746;2023-04-03T08:53:05;9.50;62.20
16517;DHT22;8371;52.272;9.746;2023-04-03T08:55:41;9.60;61.10
16517;DHT22;8371;52.272;9.746;2023-04-03T08:58:15;9.70;61.80
16517;DHT22;8371;52.272;9.746;2023-04-03T09:00:45;9.80;59.50
16517;DHT22;8371;52.272;9.746;2023-04-03T09:03:21;9.80;60.00
16517;DHT22;8371;52.272;9.746;2023-04-03T09:08:26;10.00;59.80
16517;DHT22;8371;52.272;9.746;2023-04-03T09:10:58;10.10;58.40
16517;DHT22;8371;52.272;9.746;2023-04-03T09:13:36;10.10;58.20
16517;DHT22;8371;52.272;9.746;2023-04-03T09:16:12;10.30;58.90
16517;DHT22;8371;52.272;9.746;2023-04-03T09:18:36;10.40;59.40
16517;DHT22;8371;52.272;9.746;2023-04-03T09:23:52;10.60;58.20
16517;DHT22;8371;52.272;9.746;2023-04-03T09:26:23;10.70;58.90
16517;DHT22;8371;52.272;9.746;2023-04-03T09:28:50;10.80;58.40
16517;DHT22;8371;52.272;9.746;2023-04-03T09:31:24;10.90;58.80
16517;DHT22;8371;52.272;9.746;2023-04-03T09:33:54;11.10;56.50
16517;DHT22;8371;52.272;9.746;2023-04-03T09:36:43;11.20;56.90
16517;DHT22;8371;52.272;9.746;2023-04-03T09:39:21;11.30;57.20
16517;DHT22;8371;52.272;9.746;2023-04-03T09:41:38;11.40;54.80
16517;DHT22;8371;52.272;9.746;2023-04-03T09:44:22;11.50;54.50
16517;DHT22;8371;52.272;9.746;2023-04-03T09:46:48;11.50;52.00
16517;DHT22;8371;52.272;9.746;2023-04-03T09:49:14;11.50;51.50
16517;DHT22;8371;52.272;9.746;2023-04-03T09:51:40;11.40;51.10
16517;DHT22;8371;52.272;9.746;2023-04-03T09:54:36;11.40;52.40
16517;DHT22;8371;52.272;9.746;2023-04-03T09:57:07;11.30;52.00
16517;DHT22;8371;52.272;9.746;2023-04-03T09:59:33;11.40;53.00
16517;DHT22;8371;52.272;9.746;2023-04-03T10:02:15;11.50;53.30
16517;DHT22;8371;52.272;9.746;2023-04-03T10:04:41;11.60;52.50
16517;DHT22;8371;52.272;9.746;2023-04-03T10:07:29;11.70;54.70
16517;DHT22;8371;52.272;9.746;2023-04-03T10:09:56;11.90;55.20
16517;DHT22;8371;52.272;9.746;2023-04-03T10:12:22;12.10;55.30
16517;DHT22;8371;52.272;9.746;2023-04-03T10:14:57;12.40;53.80
16517;DHT22;8371;52.272;9.746;2023-04-03T10:17:36;12.60;54.50
16517;DHT22;8371;52.272;9.746;2023-04-03T10:20:07;12.80;53.50
16517;DHT22;8371;52.272;9.746;2023-04-03T10:25:26;13.20;53.90
16517;DHT22;8371;52.272;9.746;2023-04-03T10:28:06;13.40;53.30
16517;DHT22;8371;52.272;9.746;2023-04-03T10:30:41;13.50;52.90
16517;DHT22;8371;52.272;9.746;2023-04-03T10:33:34;13.70;52.90
16517;DHT22;8371;52.272;9.746;2023-04-03T10:38:53;13.90;50.80
16517;DHT22;8371;52.272;9.746;2023-04-03T10:44:13;14.10;48.80
16517;DHT22;8371;52.272;9.746;2023-04-03T10:46:47;14.10;47.70
16517;DHT22;8371;52.272;9.746;2023-04-03T10:51:45;13.90;48.40
16517;DHT22;8371;52.272;9.746;2023-04-03T10:56:52;13.60;46.70
16517;DHT22;8371;52.272;9.746;2023-04-03T10:59:34;13.30;46.60
16517;DHT22;8371;52.272;9.746;2023-04-03T11:02:14;13.10;46.90
16517;DHT22;8371;52.272;9.746;2023-04-03T11:04:42;12.80;45.90
16517;DHT22;8371;52.272;9.746;2023-04-03T11:07:22;12.70;47.80
16517;DHT22;8371;52.272;9.746;2023-04-03T11:09:52;12.70;48.50
16517;DHT22;8371;52.272;9.746;2023-04-03T11:12:24;12.70;47.80
16517;DHT22;8371;52.272;9.746;2023-04-03T11:14:51;12.70;49.10
16517;DHT22;8371;52.272;9.746;2023-04-03T11:20:15;12.80;49.30
16517;DHT22;8371;52.272;9.746;2023-04-03T11:22:43;12.90;49.20
16517;DHT22;8371;52.272;9.746;2023-04-03T11:27:49;13.00;49.40
16517;DHT22;8371;52.272;9.746;2023-04-03T11:30:27;13.00;48.20
16517;DHT22;8371;52.272;9.746;2023-04-03T11:35:44;12.70;46.40
16517;DHT22;8371;52.272;9.746;2023-04-03T11:38:29;12.50;45.90
16517;DHT22;8371;52.272;9.746;2023-04-03T11:40:57;12.30;45.00
16517;DHT22;8371;52.272;9.746;2023-04-03T11:43:28;12.10;45.00
16517;DHT22;8371;52.272;9.746;2023-04-03T11:45:58;11.90;46.20
16517;DHT22;8371;52.272;9.746;2023-04-03T11:51:39;11.70;47.70
16517;DHT22;8371;52.272;9.746;2023-04-03T11:53:37;11.50;47.40
16517;DHT22;8371;52.272;9.746;2023-04-03T12:01:52;11.50;46.00
16517;DHT22;8371;52.272;9.746;2023-04-03T12:04:15;11.50;47.50
16517;DHT22;8371;52.272;9.746;2023-04-03T12:09:29;11.60;47.20
16517;DHT22;8371;52.272;9.746;2023-04-03T12:11:57;11.70;47.00
16517;DHT22;8371;52.272;9.746;2023-04-03T12:14:25;11.90;48.20
16517;DHT22;8371;52.272;9.746;2023-04-03T12:16:53;12.00;45.80
16517;DHT22;8371;52.272;9.746;2023-04-03T12:19:30;12.00;47.00
16517;DHT22;8371;52.272;9.746;2023-04-03T12:24:30;12.00;47.60
16517;DHT22;8371;52.272;9.746;2023-04-03T12:27:02;12.00;48.00
16517;DHT22;8371;52.272;9.746;2023-04-03T12:32:12;12.00;48.20
16517;DHT22;8371;52.272;9.746;2023-04-03T12:34:53;12.00;47.80
16517;DHT22;8371;52.272;9.746;2023-04-03T12:38:00;12.20;48.60
16517;DHT22;8371;52.272;9.746;2023-04-03T12:43:01;12.50;48.50
16517;DHT22;8371;52.272;9.746;2023-04-03T12:45:25;12.70;48.20
16517;DHT22;8371;52.272;9.746;2023-04-03T12:47:55;12.90;48.80
16517;DHT22;8371;52.272;9.746;2023-04-03T12:50:24;13.10;47.90
16517;DHT22;8371;52.272;9.746;2023-04-03T12:53:04;13.30;47.40
16517;DHT22;8371;52.272;9.746;2023-04-03T12:55:29;13.50;47.50
16517;DHT22;8371;52.272;9.746;2023-04-03T12:57:55;13.60;45.40
16517;DHT22;8371;52.272;9.746;2023-04-03T13:00:29;13.70;46.50
16517;DHT22;8371;52.272;9.746;2023-04-03T13:02:56;13.80;46.70
16517;DHT22;8371;52.272;9.746;2023-04-03T13:05:22;13.90;45.40
16517;DHT22;8371;52.272;9.746;2023-04-03T13:07:52;13.90;44.00
16517;DHT22;8371;52.272;9.746;2023-04-03T13:10:18;13.90;45.70
16517;DHT22;8371;52.272;9.746;2023-04-03T13:15:18;13.90;45.40
16517;DHT22;8371;52.272;9.746;2023-04-03T13:17:43;13.90;46.10
16517;DHT22;8371;52.272;9.746;2023-04-03T13:20:17;13.90;46.30
16517;DHT22;8371;52.272;9.746;2023-04-03T13:22:57;14.00;42.80
16517;DHT22;8371;52.272;9.746;2023-04-03T13:25:24;14.10;44.40
16517;DHT22;8371;52.272;9.746;2023-04-03T13:27:51;14.10;44.50
16517;DHT22;8371;52.272;9.746;2023-04-03T13:30:31;14.10;43.80
16517;DHT22;8371;52.272;9.746;2023-04-03T13:33:01;14.00;41.60
16517;DHT22;8371;52.272;9.746;2023-04-03T13:35:38;13.90;43.60
16517;DHT22;8371;52.272;9.746;2023-04-03T13:40:53;13.60;42.30
16517;DHT22;8371;52.272;9.746;2023-04-03T13:43:22;13.40;43.80
16517;DHT22;8371;52.272;9.746;2023-04-03T13:48:42;13.10;42.50
16517;DHT22;8371;52.272;9.746;2023-04-03T13:54:10;12.70;43.10
16517;DHT22;8371;52.272;9.746;2023-04-03T13:56:34;12.50;44.00
16517;DHT22;8371;52.272;9.746;2023-04-03T14:01:45;12.30;44.60
16517;DHT22;8371;52.272;9.746;2023-04-03T14:04:23;12.20;44.50
16517;DHT22;8371;52.272;9.746;2023-04-03T14:06:47;12.20;45.40
16517;DHT22;8371;52.272;9.746;2023-04-03T14:09:13;12.20;45.80
16517;DHT22;8371;52.272;9.746;2023-04-03T14:11:40;12.30;43.50
16517;DHT22;8371;52.272;9.746;2023-04-03T14:14:15;12.30;44.80
16517;DHT22;8371;52.272;9.746;2023-04-03T14:16:41;12.40;44.50
16517;DHT22;8371;52.272;9.746;2023-04-03T14:19:15;12.60;45.20
16517;DHT22;8371;52.272;9.746;2023-04-03T14:21:37;12.70;45.60
16517;DHT22;8371;52.272;9.746;2023-04-03T14:24:03;12.90;46.20
16517;DHT22;8371;52.272;9.746;2023-04-03T14:26:28;13.00;46.00
16517;DHT22;8371;52.272;9.746;2023-04-03T14:28:55;13.20;45.10
16517;DHT22;8371;52.272;9.746;2023-04-03T14:31:22;13.30;45.90
16517;DHT22;8371;52.272;9.746;2023-04-03T14:33:48;13.50;45.00
16517;DHT22;8371;52.272;9.746;2023-04-03T14:36:22;13.50;43.10
16517;DHT22;8371;52.272;9.746;2023-04-03T14:38:49;13.50;41.00
16517;DHT22;8371;52.272;9.746;2023-04-03T14:41:19;13.40;41.00
16517;DHT22;8371;52.272;9.746;2023-04-03T14:43:45;13.20;42.30
16517;DHT22;8371;52.272;9.746;2023-04-03T14:46:22;13.10;43.00
16517;DHT22;8371;52.272;9.746;2023-04-03T14:48:44;13.00;43.60
16517;DHT22;8371;52.272;9.746;2023-04-03T14:51:11;12.90;42.20
16517;DHT22;8371;52.272;9.746;2023-04-03T14:53:37;12.90;42.70
16517;DHT22;8371;52.272;9.746;2023-04-03T14:56:16;12.80;43.00
16517;DHT22;8371;52.272;9.746;2023-04-03T14:58:39;12.80;44.00
16517;DHT22;8371;52.272;9.746;2023-04-03T15:01:05;12.80;43.60
16517;DHT22;8371;52.272;9.746;2023-04-03T15:03:30;12.80;43.60
16517;DHT22;8371;52.272;9.746;2023-04-03T15:05:56;12.90;42.90
16517;DHT22;8371;52.272;9.746;2023-04-03T15:08:25;12.90;44.00
16517;DHT22;8371;52.272;9.746;2023-04-03T15:10:52;12.90;43.40
16517;DHT22;8371;52.272;9.746;2023-04-03T15:13:19;13.00;43.50
16517;DHT22;8371;52.272;9.746;2023-04-03T15:15:45;13.00;43.60
16517;DHT22;8371;52.272;9.746;2023-04-03T15:18:15;13.10;43.20
16517;DHT22;8371;52.272;9.746;2023-04-03T15:20:41;13.10;42.50
16517;DHT22;8371;52.272;9.746;2023-04-03T15:23:10;13.10;42.60
16517;DHT22;8371;52.272;9.746;2023-04-03T15:25:36;13.10;42.70
16517;DHT22;8371;52.272;9.746;2023-04-03T15:28:02;13.00;42.30
16517;DHT22;8371;52.272;9.746;2023-04-03T15:30:27;13.00;43.70
16517;DHT22;8371;52.272;9.746;2023-04-03T15:32:53;12.90;43.00
16517;DHT22;8371;52.272;9.746;2023-04-03T15:35:19;12.80;43.40
16517;DHT22;8371;52.272;9.746;2023-04-03T15:37:45;12.80;41.90
16517;DHT22;8371;52.272;9.746;2023-04-03T15:40:11;12.80;42.60
16517;DHT22;8371;52.272;9.746;2023-04-03T15:42:37;12.70;42.90
16517;DHT22;8371;52.272;9.746;2023-04-03T15:45:04;12.70;43.90
16517;DHT22;8371;52.272;9.746;2023-04-03T15:47:30;12.80;43.70
16517;DHT22;8371;52.272;9.746;2023-04-03T15:49:56;12.80;43.60
16517;DHT22;8371;52.272;9.746;2023-04-03T15:52:21;12.80;42.90
16517;DHT22;8371;52.272;9.746;2023-04-03T15:54:47;12.70;41.50
16517;DHT22;8371;52.272;9.746;2023-04-03T15:57:13;12.70;41.60
16517;DHT22;8371;52.272;9.746;2023-04-03T15:59:39;12.70;42.40
16517;DHT22;8371;52.272;9.746;2023-04-03T16:02:06;12.60;43.00
16517;DHT22;8371;52.272;9.746;2023-04-03T16:04:33;12.70;44.10
16517;DHT22;8371;52.272;9.746;2023-04-03T16:07:02;12.70;43.70
16517;DHT22;8371;52.272;9.746;2023-04-03T16:09:28;12.80;44.20
16517;DHT22;8371;52.272;9.746;2023-04-03T16:11:54;12.90;43.00
16517;DHT22;8371;52.272;9.746;2023-04-03T16:14:20;12.80;41.00
16517;DHT22;8371;52.272;9.746;2023-04-03T16:16:45;12.80;42.80
16517;DHT22;8371;52.272;9.746;2023-04-03T16:19:11;12.80;42.90
16517;DHT22;8371;52.272;9.746;2023-04-03T16:21:37;12.70;42.40
16517;DHT22;8371;52.272;9.746;2023-04-03T16:24:03;12.70;42.90
16517;DHT22;8371;52.272;9.746;2023-04-03T16:26:28;12.60;43.20
16517;DHT22;8371;52.272;9.746;2023-04-03T16:28:54;12.40;43.70
16517;DHT22;8371;52.272;9.746;2023-04-03T16:31:21;12.30;43.10
16517;DHT22;8371;52.272;9.746;2023-04-03T16:33:47;12.20;42.10
16517;DHT22;8371;52.272;9.746;2023-04-03T16:36:12;12.10;42.60
16517;DHT22;8371;52.272;9.746;2023-04-03T16:38:38;12.00;42.90
16517;DHT22;8371;52.272;9.746;2023-04-03T16:41:04;11.90;43.40
16517;DHT22;8371;52.272;9.746;2023-04-03T16:43:31;11.80;43.70
16517;DHT22;8371;52.272;9.746;2023-04-03T16:45:57;11.70;43.50
16517;DHT22;8371;52.272;9.746;2023-04-03T16:48:23;11.70;43.30
16517;DHT22;8371;52.272;9.746;2023-04-03T16:50:49;11.60;43.40
16517;DHT22;8371;52.272;9.746;2023-04-03T16:53:16;11.60;44.30
16517;DHT22;8371;52.272;9.746;2023-04-03T16:55:42;11.50;43.90
16517;DHT22;8371;52.272;9.746;2023-04-03T16:58:08;11.50;44.90
16517;DHT22;8371;52.272;9.746;2023-04-03T17:00:34;11.40;44.20
16517;DHT22;8371;52.272;9.746;2023-04-03T17:03:01;11.30;44.00
16517;DHT22;8371;52.272;9.746;2023-04-03T17:05:27;11.20;43.80
16517;DHT22;8371;52.272;9.746;2023-04-03T17:07:53;11.20;44.00
16517;DHT22;8371;52.272;9.746;2023-04-03T17:10:19;11.00;43.70